sensor_id;sensor_type;location;lat;lon;timestamp;pressure;altitude;pressure_sealevel;temperature;humidity
75933;BME280;64803;52.356;5.310;2023-02-15T00:00:31;103296.75;;;0.27;100.00
75933;BME280;64803;52.356;5.310;2023-02-15T00:02:57;103326.22;;;0.41;100.00
75933;BME280;64803;52.356;5.310;2023-02-15T00:05:23;103323.56;;;0.41;100.00
75933;BME280;64803;52.356;5.310;2023-02-15T00:07:49;103325.34;;;0.40;100.00
75933;BME280;64803;52.356;5.310;2023-02-15T00:10:16;103330.59;;;0.42;100.00
75933;BME280;64803;52.356;5.310;2023-02-15T00:12:42;103326.97;;;0.44;100.00
75933;BME280;64803;52.356;5.310;2023-02-15T00:15:08;103329.34;;;0.52;100.00
75933;BME280;64803;52.356;5.310;2023-02-15T00:17:35;103326.66;;;0.53;100.00
75933;BME280;64803;52.356;5.310;2023-02-15T00:20:01;103323.09;;;0.54;100.00
75933;BME280;64803;52.356;5.310;2023-02-15T00:22:27;103315.28;;;0.51;100.00
75933;BME280;64803;52.356;5.310;2023-02-15T00:24:53;103325.03;;;0.49;100.00
75933;BME280;64803;52.356;5.310;2023-02-15T00:27:19;103323.31;;;0.48;100.00
75933;BME280;64803;52.356;5.310;2023-02-15T00:29:46;103321.69;;;0.44;100.00
75933;BME280;64803;52.356;5.310;2023-02-15T00:32:12;103319.16;;;0.41;100.00
75933;BME280;64803;52.356;5.310;2023-02-15T00:34:40;103313.16;;;0.36;100.00
75933;BME280;64803;52.356;5.310;2023-02-15T00:37:06;103312.25;;;0.37;100.00
75933;BME280;64803;52.356;5.310;2023-02-15T00:39:32;103309.59;;;0.37;100.00
75933;BME280;64803;52.356;5.310;2023-02-15T00:41:58;103311.66;;;0.29;100.00
75933;BME280;64803;52.356;5.310;2023-02-15T00:44:24;103311.00;;;0.23;100.00
75933;BME280;64803;52.356;5.310;2023-02-15T00:46:50;103311.03;;;0.21;100.00
75933;BME280;64803;52.356;5.310;2023-02-15T00:49:16;103290.25;;;0.11;100.00
75933;BME280;64803;52.356;5.310;2023-02-15T00:51:42;103307.63;;;0.18;100.00
75933;BME280;64803;52.356;5.310;2023-02-15T00:54:08;103300.75;;;0.14;100.00
75933;BME280;64803;52.356;5.310;2023-02-15T00:56:34;103306.06;;;0.12;100.00
75933;BME280;64803;52.356;5.310;2023-02-15T00:59:00;103300.94;;;0.08;100.00
75933;BME280;64803;52.356;5.310;2023-02-15T01:01:26;103300.06;;;0.07;100.00
75933;BME280;64803;52.356;5.310;2023-02-15T01:03:52;103302.00;;;0.02;100.00
75933;BME280;64803;52.356;5.310;2023-02-15T01:06:18;103289.91;;;-0.05;100.00
75933;BME280;64803;52.356;5.310;2023-02-15T01:08:45;103297.03;;;-0.07;100.00
75933;BME280;64803;52.356;5.310;2023-02-15T01:11:17;103297.13;;;-0.10;100.00
75933;BME280;64803;52.356;5.310;2023-02-15T01:13:52;103287.78;;;-0.20;100.00
75933;BME280;64803;52.356;5.310;2023-02-15T01:16:18;103282.66;;;-0.25;100.00
75933;BME280;64803;52.356;5.310;2023-02-15T01:18:44;103282.66;;;-0.25;100.00
75933;BME280;64803;52.356;5.310;2023-02-15T01:21:15;103276.50;;;-0.25;100.00
75933;BME280;64803;52.356;5.310;2023-02-15T01:23:43;103272.94;;;-0.24;100.00
75933;BME280;64803;52.356;5.310;2023-02-15T01:26:12;103272.94;;;-0.24;100.00
75933;BME280;64803;52.356;5.310;2023-02-15T01:28:38;103276.44;;;-0.24;100.00
75933;BME280;64803;52.356;5.310;2023-02-15T01:31:10;103258.91;;;-0.26;100.00
75933;BME280;64803;52.356;5.310;2023-02-15T01:33:37;103185.00;;;-0.78;100.00
75933;BME280;64803;52.356;5.310;2023-02-15T01:36:04;103263.81;;;-0.40;100.00
75933;BME280;64803;52.356;5.310;2023-02-15T01:38:31;103251.84;;;-0.52;100.00
75933;BME280;64803;52.356;5.310;2023-02-15T01:40:57;103252.81;;;-0.54;100.00
75933;BME280;64803;52.356;5.310;2023-02-15T01:43:57;103197.47;;;-0.83;100.00
75933;BME280;64803;52.356;5.310;2023-02-15T01:46:30;103243.16;;;-0.55;100.00
75933;BME280;64803;52.356;5.310;2023-02-15T01:49:08;103234.81;;;-0.69;100.00
75933;BME280;64803;52.356;5.310;2023-02-15T01:51:37;103243.31;;;-0.60;100.00
75933;BME280;64803;52.356;5.310;2023-02-15T01:54:22;103243.44;;;-0.63;100.00
75933;BME280;64803;52.356;5.310;2023-02-15T01:56:50;103239.03;;;-0.64;100.00
75933;BME280;64803;52.356;5.310;2023-02-15T01:59:19;103241.63;;;-0.62;100.00
75933;BME280;64803;52.356;5.310;2023-02-15T02:01:50;103242.44;;;-0.60;100.00
75933;BME280;64803;52.356;5.310;2023-02-15T02:04:28;103242.41;;;-0.59;100.00
75933;BME280;64803;52.356;5.310;2023-02-15T02:06:56;103232.78;;;-0.60;100.00
75933;BME280;64803;52.356;5.310;2023-02-15T02:09:23;103234.59;;;-0.62;100.00
75933;BME280;64803;52.356;5.310;2023-02-15T02:11:50;103232.91;;;-0.64;100.00
75933;BME280;64803;52.356;5.310;2023-02-15T02:14:16;103226.72;;;-0.63;100.00
75933;BME280;64803;52.356;5.310;2023-02-15T02:17:01;103226.50;;;-0.57;100.00
75933;BME280;64803;52.356;5.310;2023-02-15T02:22:39;103224.28;;;-0.43;100.00
75933;BME280;64803;52.356;5.310;2023-02-15T02:28:30;103224.28;;;-0.43;100.00
75933;BME280;64803;52.356;5.310;2023-02-15T02:36:49;103213.91;;;-0.48;100.00
75933;BME280;64803;52.356;5.310;2023-02-15T02:39:33;103208.56;;;-0.46;100.00
75933;BME280;64803;52.356;5.310;2023-02-15T02:44:57;103208.56;;;-0.46;100.00
75933;BME280;64803;52.356;5.310;2023-02-15T02:49:57;103191.22;;;-0.53;100.00
75933;BME280;64803;52.356;5.310;2023-02-15T02:57:54;103191.31;;;-0.56;100.00
75933;BME280;64803;52.356;5.310;2023-02-15T03:00:23;103153.97;;;-0.70;100.00
75933;BME280;64803;52.356;5.310;2023-02-15T03:02:56;103188.38;;;-0.47;100.00
75933;BME280;64803;52.356;5.310;2023-02-15T03:05:25;103182.28;;;-0.49;100.00
75933;BME280;64803;52.356;5.310;2023-02-15T03:07:54;103185.88;;;-0.52;100.00
75933;BME280;64803;52.356;5.310;2023-02-15T03:10:23;103180.66;;;-0.53;100.00
75933;BME280;64803;52.356;5.310;2023-02-15T03:12:51;103164.81;;;-0.53;100.00
75933;BME280;64803;52.356;5.310;2023-02-15T03:15:28;103155.19;;;-0.54;100.00
75933;BME280;64803;52.356;5.310;2023-02-15T03:18:17;103157.69;;;-0.50;100.00
75933;BME280;64803;52.356;5.310;2023-02-15T03:20:46;103159.44;;;-0.50;100.00
75933;BME280;64803;52.356;5.310;2023-02-15T03:23:15;103154.22;;;-0.52;100.00
75933;BME280;64803;52.356;5.310;2023-02-15T03:25:46;103153.50;;;-0.57;100.00
75933;BME280;64803;52.356;5.310;2023-02-15T03:28:19;103159.44;;;-0.50;100.00
75933;BME280;64803;52.356;5.310;2023-02-15T03:30:51;103148.06;;;-0.52;100.00
75933;BME280;64803;52.356;5.310;2023-02-15T03:33:21;103150.41;;;-0.43;100.00
75933;BME280;64803;52.356;5.310;2023-02-15T03:36:17;103146.66;;;-0.36;100.00
75933;BME280;64803;52.356;5.310;2023-02-15T03:39:00;103148.88;;;-0.24;100.00
75933;BME280;64803;52.356;5.310;2023-02-15T03:41:44;103150.66;;;-0.25;100.00
75933;BME280;64803;52.356;5.310;2023-02-15T03:44:17;103150.03;;;-0.33;100.00
75933;BME280;64803;52.356;5.310;2023-02-15T03:47:02;103146.88;;;-0.42;100.00
75933;BME280;64803;52.356;5.310;2023-02-15T03:50:13;103064.19;;;-0.93;100.00
75933;BME280;64803;52.356;5.310;2023-02-15T03:52:58;103142.53;;;-0.45;100.00
75933;BME280;64803;52.356;5.310;2023-02-15T03:55:25;103143.19;;;-0.38;100.00
75933;BME280;64803;52.356;5.310;2023-02-15T03:57:52;103143.69;;;-0.27;100.00
75933;BME280;64803;52.356;5.310;2023-02-15T04:00:44;103097.81;;;-0.48;100.00
75933;BME280;64803;52.356;5.310;2023-02-15T04:03:42;103132.81;;;-0.18;100.00
75933;BME280;64803;52.356;5.310;2023-02-15T04:06:11;103115.84;;;-0.11;100.00
75933;BME280;64803;52.356;5.310;2023-02-15T04:08:37;103124.03;;;0.06;100.00
75933;BME280;64803;52.356;5.310;2023-02-15T04:11:21;103117.19;;;0.00;100.00
75933;BME280;64803;52.356;5.310;2023-02-15T04:13:47;103123.22;;;0.04;100.00
75933;BME280;64803;52.356;5.310;2023-02-15T04:16:13;103125.91;;;0.03;100.00
75933;BME280;64803;52.356;5.310;2023-02-15T04:18:42;103122.19;;;0.08;100.00
75933;BME280;64803;52.356;5.310;2023-02-15T04:21:29;103118.63;;;0.09;100.00
75933;BME280;64803;52.356;5.310;2023-02-15T04:24:14;103111.84;;;0.02;100.00
75933;BME280;64803;52.356;5.310;2023-02-15T04:26:59;103128.13;;;-0.10;100.00
75933;BME280;64803;52.356;5.310;2023-02-15T04:29:27;103107.44;;;-0.22;100.00
75933;BME280;64803;52.356;5.310;2023-02-15T04:31:54;103118.00;;;-0.22;100.00
75933;BME280;64803;52.356;5.310;2023-02-15T04:34:20;103056.66;;;-0.53;100.00
75933;BME280;64803;52.356;5.310;2023-02-15T04:36:46;103107.31;;;-0.19;100.00
75933;BME280;64803;52.356;5.310;2023-02-15T04:39:14;103101.72;;;-0.10;100.00
75933;BME280;64803;52.356;5.310;2023-02-15T04:41:40;103072.75;;;-0.12;100.00
75933;BME280;64803;52.356;5.310;2023-02-15T04:44:07;103099.13;;;0.13;100.00
75933;BME280;64803;52.356;5.310;2023-02-15T04:46:33;103098.53;;;0.28;100.00
75933;BME280;64803;52.356;5.310;2023-02-15T04:48:59;103096.78;;;0.29;100.00
75933;BME280;64803;52.356;5.310;2023-02-15T04:51:25;103104.75;;;0.27;100.00
75933;BME280;64803;52.356;5.310;2023-02-15T04:53:51;103026.22;;;-0.14;100.00
75933;BME280;64803;52.356;5.310;2023-02-15T04:56:20;103091.53;;;0.27;100.00
75933;BME280;64803;52.356;5.310;2023-02-15T04:58:47;103093.91;;;0.35;100.00
75933;BME280;64803;52.356;5.310;2023-02-15T05:01:13;103051.38;;;0.18;100.00
75933;BME280;64803;52.356;5.310;2023-02-15T05:03:39;103091.94;;;0.40;100.00
75933;BME280;64803;52.356;5.310;2023-02-15T05:06:08;103087.63;;;0.37;100.00
75933;BME280;64803;52.356;5.310;2023-02-15T05:08:34;103089.38;;;0.38;100.00
75933;BME280;64803;52.356;5.310;2023-02-15T05:11:00;103089.38;;;0.38;100.00
75933;BME280;64803;52.356;5.310;2023-02-15T05:13:26;103082.22;;;0.40;100.00
75933;BME280;64803;52.356;5.310;2023-02-15T05:15:52;103090.13;;;0.42;100.00
75933;BME280;64803;52.356;5.310;2023-02-15T05:18:20;103085.56;;;0.45;100.00
75933;BME280;64803;52.356;5.310;2023-02-15T05:20:47;103088.97;;;0.49;100.00
75933;BME280;64803;52.356;5.310;2023-02-15T05:23:14;103084.44;;;0.51;100.00
75933;BME280;64803;52.356;5.310;2023-02-15T05:25:40;103087.91;;;0.53;100.00
75933;BME280;64803;52.356;5.310;2023-02-15T05:28:27;103079.91;;;0.54;100.00
75933;BME280;64803;52.356;5.310;2023-02-15T05:31:03;103083.13;;;0.62;100.00
75933;BME280;64803;52.356;5.310;2023-02-15T05:33:30;103087.31;;;0.68;100.00
75933;BME280;64803;52.356;5.310;2023-02-15T05:35:57;103086.31;;;0.70;100.00
75933;BME280;64803;52.356;5.310;2023-02-15T05:38:23;103093.44;;;0.68;100.00
75933;BME280;64803;52.356;5.310;2023-02-15T05:40:50;103086.47;;;0.67;100.00
75933;BME280;64803;52.356;5.310;2023-02-15T05:43:17;103083.69;;;0.70;100.00
75933;BME280;64803;52.356;5.310;2023-02-15T05:45:47;103084.69;;;0.68;100.00
75933;BME280;64803;52.356;5.310;2023-02-15T05:48:14;103081.25;;;0.66;100.00
75933;BME280;64803;52.356;5.310;2023-02-15T05:50:41;103078.47;;;0.69;100.00
75933;BME280;64803;52.356;5.310;2023-02-15T05:53:07;103082.88;;;0.68;100.00
75933;BME280;64803;52.356;5.310;2023-02-15T05:55:33;103081.34;;;0.63;100.00
75933;BME280;64803;52.356;5.310;2023-02-15T05:57:59;103071.63;;;0.63;100.00
75933;BME280;64803;52.356;5.310;2023-02-15T06:00:25;103074.28;;;0.63;100.00
75933;BME280;64803;52.356;5.310;2023-02-15T06:02:51;103080.50;;;0.62;100.00
75933;BME280;64803;52.356;5.310;2023-02-15T06:05:17;103073.59;;;0.58;100.00
75933;BME280;64803;52.356;5.310;2023-02-15T06:07:43;103076.38;;;0.55;100.00
75933;BME280;64803;52.356;5.310;2023-02-15T06:10:11;103053.88;;;0.45;100.00
75933;BME280;64803;52.356;5.310;2023-02-15T06:12:37;103069.25;;;0.57;100.00
75933;BME280;64803;52.356;5.310;2023-02-15T06:15:03;103063.81;;;0.60;100.00
75933;BME280;64803;52.356;5.310;2023-02-15T06:17:30;103067.41;;;0.59;100.00
75933;BME280;64803;52.356;5.310;2023-02-15T06:19:56;103066.53;;;0.59;100.00
75933;BME280;64803;52.356;5.310;2023-02-15T06:22:22;103061.25;;;0.59;100.00
75933;BME280;64803;52.356;5.310;2023-02-15T06:24:48;103054.22;;;0.58;100.00
75933;BME280;64803;52.356;5.310;2023-02-15T06:27:14;103064.69;;;0.61;100.00
75933;BME280;64803;52.356;5.310;2023-02-15T06:29:40;103066.59;;;0.57;100.00
75933;BME280;64803;52.356;5.310;2023-02-15T06:32:06;103062.13;;;0.59;100.00
75933;BME280;64803;52.356;5.310;2023-02-15T06:34:32;103061.25;;;0.59;100.00
75933;BME280;64803;52.356;5.310;2023-02-15T06:36:58;103070.22;;;0.55;100.00
75933;BME280;64803;52.356;5.310;2023-02-15T06:39:24;103059.16;;;0.45;100.00
75933;BME280;64803;52.356;5.310;2023-02-15T06:41:51;103066.28;;;0.43;100.00
75933;BME280;64803;52.356;5.310;2023-02-15T06:44:17;103068.91;;;0.43;100.00
75933;BME280;64803;52.356;5.310;2023-02-15T06:46:43;103059.25;;;0.42;100.00
75933;BME280;64803;52.356;5.310;2023-02-15T06:49:09;103056.66;;;0.41;100.00
75933;BME280;64803;52.356;5.310;2023-02-15T06:51:35;103051.44;;;0.39;100.00
75933;BME280;64803;52.356;5.310;2023-02-15T06:54:01;103067.63;;;0.53;100.00
75933;BME280;64803;52.356;5.310;2023-02-15T06:56:27;103069.34;;;0.54;100.00
75933;BME280;64803;52.356;5.310;2023-02-15T06:58:53;103065.78;;;0.55;100.00
75933;BME280;64803;52.356;5.310;2023-02-15T07:01:19;103065.66;;;0.58;100.00
75933;BME280;64803;52.356;5.310;2023-02-15T07:03:45;103068.19;;;0.61;100.00
75933;BME280;64803;52.356;5.310;2023-02-15T07:06:11;103061.13;;;0.62;100.00
75933;BME280;64803;52.356;5.310;2023-02-15T07:08:38;103030.09;;;0.45;100.00
75933;BME280;64803;52.356;5.310;2023-02-15T07:11:05;103060.03;;;0.67;100.00
75933;BME280;64803;52.356;5.310;2023-02-15T07:13:51;103022.09;;;0.47;100.00
75933;BME280;64803;52.356;5.310;2023-02-15T07:16:20;103069.56;;;0.71;100.00
75933;BME280;64803;52.356;5.310;2023-02-15T07:18:46;103067.75;;;0.72;100.00
75933;BME280;64803;52.356;5.310;2023-02-15T07:21:12;103069.44;;;0.74;100.00
75933;BME280;64803;52.356;5.310;2023-02-15T07:23:39;103066.78;;;0.74;100.00
75933;BME280;64803;52.356;5.310;2023-02-15T07:26:06;103059.66;;;0.76;100.00
75933;BME280;64803;52.356;5.310;2023-02-15T07:28:34;103058.72;;;0.77;100.00
75933;BME280;64803;52.356;5.310;2023-02-15T07:31:03;103054.38;;;0.76;100.00
75933;BME280;64803;52.356;5.310;2023-02-15T07:33:34;103052.53;;;0.78;100.00
75933;BME280;64803;52.356;5.310;2023-02-15T07:36:02;103045.38;;;0.80;100.00
75933;BME280;64803;52.356;5.310;2023-02-15T07:38:35;103042.50;;;0.86;100.00
75933;BME280;64803;52.356;5.310;2023-02-15T07:41:05;103037.00;;;0.91;100.00
75933;BME280;64803;52.356;5.310;2023-02-15T07:43:33;103028.84;;;0.97;100.00
75933;BME280;64803;52.356;5.310;2023-02-15T07:46:04;103022.53;;;0.99;100.00
75933;BME280;64803;52.356;5.310;2023-02-15T07:48:31;102962.88;;;0.72;100.00
75933;BME280;64803;52.356;5.310;2023-02-15T07:51:01;103017.75;;;1.09;100.00
75933;BME280;64803;52.356;5.310;2023-02-15T07:53:27;103022.81;;;1.13;100.00
75933;BME280;64803;52.356;5.310;2023-02-15T07:55:54;103026.16;;;1.19;100.00
75933;BME280;64803;52.356;5.310;2023-02-15T07:58:20;103016.63;;;1.14;100.00
75933;BME280;64803;52.356;5.310;2023-02-15T08:00:46;103020.59;;;1.25;100.00
75933;BME280;64803;52.356;5.310;2023-02-15T08:03:27;103021.41;;;1.27;100.00
75933;BME280;64803;52.356;5.310;2023-02-15T08:05:59;103014.31;;;1.27;100.00
75933;BME280;64803;52.356;5.310;2023-02-15T08:08:28;102996.25;;;1.17;100.00
75933;BME280;64803;52.356;5.310;2023-02-15T08:11:05;103013.06;;;1.36;100.00
75933;BME280;64803;52.356;5.310;2023-02-15T08:14:04;103007.63;;;1.39;100.00
75933;BME280;64803;52.356;5.310;2023-02-15T08:16:42;103012.69;;;1.45;100.00
75933;BME280;64803;52.356;5.310;2023-02-15T08:19:09;103002.75;;;1.50;100.00
75933;BME280;64803;52.356;5.310;2023-02-15T08:21:41;102994.81;;;1.50;100.00
75933;BME280;64803;52.356;5.310;2023-02-15T08:24:09;103000.47;;;1.61;100.00
75933;BME280;64803;52.356;5.310;2023-02-15T08:26:36;102993.97;;;1.68;100.00
75933;BME280;64803;52.356;5.310;2023-02-15T08:29:02;102987.69;;;1.70;100.00
75933;BME280;64803;52.356;5.310;2023-02-15T08:31:28;102984.97;;;1.72;100.00
75933;BME280;64803;52.356;5.310;2023-02-15T08:33:55;102985.13;;;1.87;100.00
75933;BME280;64803;52.356;5.310;2023-02-15T08:36:25;102990.06;;;1.95;100.00
75933;BME280;64803;52.356;5.310;2023-02-15T08:38:51;102983.84;;;1.96;100.00
75933;BME280;64803;52.356;5.310;2023-02-15T08:41:19;102991.13;;;2.09;100.00
75933;BME280;64803;52.356;5.310;2023-02-15T08:43:48;102981.13;;;2.16;100.00
75933;BME280;64803;52.356;5.310;2023-02-15T08:46:15;102978.47;;;2.16;100.00
75933;BME280;64803;52.356;5.310;2023-02-15T08:48:42;102988.28;;;2.33;100.00
75933;BME280;64803;52.356;5.310;2023-02-15T08:51:11;102988.06;;;2.37;100.00
75933;BME280;64803;52.356;5.310;2023-02-15T08:53:39;102992.91;;;2.46;100.00
75933;BME280;64803;52.356;5.310;2023-02-15T08:56:06;102996.97;;;2.53;100.00
75933;BME280;64803;52.356;5.310;2023-02-15T08:58:33;102993.25;;;2.57;100.00
75933;BME280;64803;52.356;5.310;2023-02-15T09:00:59;102988.38;;;2.67;100.00
75933;BME280;64803;52.356;5.310;2023-02-15T09:03:28;102988.94;;;2.73;100.00
75933;BME280;64803;52.356;5.310;2023-02-15T09:05:58;102995.41;;;2.85;100.00
75933;BME280;64803;52.356;5.310;2023-02-15T09:08:25;102985.28;;;2.93;100.00
75933;BME280;64803;52.356;5.310;2023-02-15T09:10:52;102981.06;;;3.06;100.00
75933;BME280;64803;52.356;5.310;2023-02-15T09:13:18;102976.78;;;3.20;100.00
75933;BME280;64803;52.356;5.310;2023-02-15T09:15:44;102974.41;;;3.31;100.00
75933;BME280;64803;52.356;5.310;2023-02-15T09:18:10;102965.53;;;3.32;100.00
75933;BME280;64803;52.356;5.310;2023-02-15T09:20:37;102975.44;;;3.46;100.00
75933;BME280;64803;52.356;5.310;2023-02-15T09:23:03;102963.47;;;3.55;100.00
75933;BME280;64803;52.356;5.310;2023-02-15T09:25:29;102964.69;;;3.65;100.00
75933;BME280;64803;52.356;5.310;2023-02-15T09:27:55;102963.88;;;3.80;100.00
75933;BME280;64803;52.356;5.310;2023-02-15T09:30:21;102958.75;;;3.92;100.00
75933;BME280;64803;52.356;5.310;2023-02-15T09:32:47;102964.41;;;4.02;100.00
75933;BME280;64803;52.356;5.310;2023-02-15T09:35:14;102957.63;;;4.12;100.00
75933;BME280;64803;52.356;5.310;2023-02-15T09:37:40;102940.22;;;4.06;100.00
75933;BME280;64803;52.356;5.310;2023-02-15T09:40:06;102958.09;;;4.35;100.00
75933;BME280;64803;52.356;5.310;2023-02-15T09:45:38;102964.38;;;4.64;100.00
75933;BME280;64803;52.356;5.310;2023-02-15T09:48:35;102961.00;;;4.76;100.00
75933;BME280;64803;52.356;5.310;2023-02-15T09:54:17;102968.81;;;4.95;100.00
75933;BME280;64803;52.356;5.310;2023-02-15T09:56:52;102956.94;;;5.00;100.00
75933;BME280;64803;52.356;5.310;2023-02-15T10:00:04;102961.53;;;5.12;100.00
75933;BME280;64803;52.356;5.310;2023-02-15T10:05:25;102965.47;;;5.35;100.00
75933;BME280;64803;52.356;5.310;2023-02-15T10:27:32;102984.84;;;6.09;100.00
75933;BME280;64803;52.356;5.310;2023-02-15T10:30:08;102993.03;;;6.20;100.00
75933;BME280;64803;52.356;5.310;2023-02-15T10:32:53;102981.88;;;6.27;100.00
75933;BME280;64803;52.356;5.310;2023-02-15T10:38:27;102978.31;;;6.41;100.00
75933;BME280;64803;52.356;5.310;2023-02-15T10:52:40;102968.44;;;6.82;100.00
75933;BME280;64803;52.356;5.310;2023-02-15T10:55:36;102951.06;;;6.89;100.00
75933;BME280;64803;52.356;5.310;2023-02-15T11:00:54;102946.72;;;7.13;100.00
75933;BME280;64803;52.356;5.310;2023-02-15T11:06:14;102950.59;;;7.34;100.00
75933;BME280;64803;52.356;5.310;2023-02-15T11:08:44;102937.34;;;7.45;100.00
75933;BME280;64803;52.356;5.310;2023-02-15T11:11:21;102928.16;;;7.49;100.00
75933;BME280;64803;52.356;5.310;2023-02-15T11:13:53;102926.78;;;7.56;100.00
75933;BME280;64803;52.356;5.310;2023-02-15T11:16:26;102936.25;;;7.60;100.00
75933;BME280;64803;52.356;5.310;2023-02-15T11:18:57;102920.97;;;7.75;100.00
75933;BME280;64803;52.356;5.310;2023-02-15T11:21:31;102919.03;;;7.89;100.00
75933;BME280;64803;52.356;5.310;2023-02-15T11:23:59;102914.59;;;8.01;100.00
75933;BME280;64803;52.356;5.310;2023-02-15T11:29:13;102896.66;;;8.27;100.00
75933;BME280;64803;52.356;5.310;2023-02-15T11:31:59;102893.88;;;8.52;100.00
75933;BME280;64803;52.356;5.310;2023-02-15T11:34:36;102895.00;;;8.60;100.00
75933;BME280;64803;52.356;5.310;2023-02-15T11:37:11;102891.88;;;8.66;99.16
75933;BME280;64803;52.356;5.310;2023-02-15T11:39:40;102870.09;;;8.71;98.88
75933;BME280;64803;52.356;5.310;2023-02-15T11:42:17;102888.28;;;8.89;97.32
75933;BME280;64803;52.356;5.310;2023-02-15T11:45:07;102878.06;;;8.94;95.26
75933;BME280;64803;52.356;5.310;2023-02-15T11:47:43;102875.91;;;9.10;98.05
75933;BME280;64803;52.356;5.310;2023-02-15T11:50:19;102870.84;;;9.19;95.40
75933;BME280;64803;52.356;5.310;2023-02-15T11:52:49;102859.50;;;9.26;97.02
75933;BME280;64803;52.356;5.310;2023-02-15T11:55:20;102857.81;;;9.36;95.36
75933;BME280;64803;52.356;5.310;2023-02-15T11:57:55;102844.63;;;9.33;94.26
75933;BME280;64803;52.356;5.310;2023-02-15T12:00:54;102839.03;;;9.47;93.18
75933;BME280;64803;52.356;5.310;2023-02-15T12:03:28;102826.75;;;9.45;93.80
75933;BME280;64803;52.356;5.310;2023-02-15T12:06:03;102835.63;;;9.45;93.72
75933;BME280;64803;52.356;5.310;2023-02-15T12:08:39;102834.88;;;9.43;93.12
75933;BME280;64803;52.356;5.310;2023-02-15T12:11:11;102838.31;;;9.34;91.49
75933;BME280;64803;52.356;5.310;2023-02-15T12:13:59;102838.28;;;9.45;92.50
75933;BME280;64803;52.356;5.310;2023-02-15T12:16:27;102837.69;;;9.64;93.66
75933;BME280;64803;52.356;5.310;2023-02-15T12:19:01;102832.69;;;9.70;91.53
75933;BME280;64803;52.356;5.310;2023-02-15T12:21:40;102835.09;;;9.84;92.22
75933;BME280;64803;52.356;5.310;2023-02-15T12:24:45;102827.88;;;9.96;91.26
75933;BME280;64803;52.356;5.310;2023-02-15T12:27:20;102828.00;;;9.94;90.44
75933;BME280;64803;52.356;5.310;2023-02-15T12:29:58;102828.72;;;9.96;89.04
75933;BME280;64803;52.356;5.310;2023-02-15T12:32:31;102822.47;;;10.07;90.85
75933;BME280;64803;52.356;5.310;2023-02-15T12:35:08;102826.53;;;10.12;88.87
75933;BME280;64803;52.356;5.310;2023-02-15T12:37:38;102825.03;;;10.19;88.79
75933;BME280;64803;52.356;5.310;2023-02-15T12:40:20;102811.94;;;10.26;88.80
75933;BME280;64803;52.356;5.310;2023-02-15T12:42:46;102812.50;;;10.41;89.46
75933;BME280;64803;52.356;5.310;2023-02-15T12:45:27;102805.09;;;10.54;89.86
75933;BME280;64803;52.356;5.310;2023-02-15T12:55:50;102788.00;;;10.96;87.61
75933;BME280;64803;52.356;5.310;2023-02-15T12:58:18;102805.91;;;11.16;87.62
75933;BME280;64803;52.356;5.310;2023-02-15T13:00:45;102797.47;;;11.20;87.42
75933;BME280;64803;52.356;5.310;2023-02-15T13:03:20;102796.91;;;11.26;86.81
75933;BME280;64803;52.356;5.310;2023-02-15T13:05:55;102790.28;;;11.30;84.65
75933;BME280;64803;52.356;5.310;2023-02-15T13:08:39;102789.19;;;11.33;85.87
75933;BME280;64803;52.356;5.310;2023-02-15T13:11:11;102766.31;;;11.18;84.37
75933;BME280;64803;52.356;5.310;2023-02-15T13:13:50;102795.66;;;11.30;84.82
75933;BME280;64803;52.356;5.310;2023-02-15T13:16:20;102789.56;;;11.28;84.45
75933;BME280;64803;52.356;5.310;2023-02-15T13:18:51;102780.47;;;11.20;85.47
75933;BME280;64803;52.356;5.310;2023-02-15T13:21:21;102779.47;;;11.21;84.72
75933;BME280;64803;52.356;5.310;2023-02-15T13:23:53;102778.50;;;11.22;85.18
75933;BME280;64803;52.356;5.310;2023-02-15T13:26:23;102776.63;;;11.13;85.61
75933;BME280;64803;52.356;5.310;2023-02-15T13:28:55;102735.63;;;10.90;85.24
75933;BME280;64803;52.356;5.310;2023-02-15T13:31:27;102771.22;;;11.13;84.55
75933;BME280;64803;52.356;5.310;2023-02-15T13:34:38;102768.53;;;11.13;84.29
75933;BME280;64803;52.356;5.310;2023-02-15T13:42:21;102764.25;;;11.31;84.18
75933;BME280;64803;52.356;5.310;2023-02-15T13:48:11;102774.34;;;11.48;83.69
75933;BME280;64803;52.356;5.310;2023-02-15T14:10:37;102758.59;;;11.04;81.83
75933;BME280;64803;52.356;5.310;2023-02-15T14:15:49;102729.44;;;10.99;82.79
75933;BME280;64803;52.356;5.310;2023-02-15T14:18:25;102756.34;;;11.09;82.10
75933;BME280;64803;52.356;5.310;2023-02-15T14:23:56;102748.75;;;11.14;81.32
75933;BME280;64803;52.356;5.310;2023-02-15T14:26:40;102735.31;;;11.14;80.41
75933;BME280;64803;52.356;5.310;2023-02-15T14:32:11;102728.94;;;11.24;80.53
75933;BME280;64803;52.356;5.310;2023-02-15T14:35:00;102735.88;;;11.17;80.17
75933;BME280;64803;52.356;5.310;2023-02-15T14:43:01;102739.31;;;10.99;82.33
75933;BME280;64803;52.356;5.310;2023-02-15T14:45:58;102750.34;;;10.96;81.96
75933;BME280;64803;52.356;5.310;2023-02-15T14:48:32;102738.47;;;10.98;82.39
75933;BME280;64803;52.356;5.310;2023-02-15T14:51:00;102737.53;;;11.09;80.26
75933;BME280;64803;52.356;5.310;2023-02-15T14:56:19;102747.09;;;11.22;79.33
75933;BME280;64803;52.356;5.310;2023-02-15T15:01:32;102741.78;;;11.51;78.83
75933;BME280;64803;52.356;5.310;2023-02-15T15:04:05;102739.66;;;11.55;77.60
75933;BME280;64803;52.356;5.310;2023-02-15T15:06:37;102742.94;;;11.58;76.92
75933;BME280;64803;52.356;5.310;2023-02-15T15:09:25;102741.16;;;11.28;78.42
75933;BME280;64803;52.356;5.310;2023-02-15T15:11:53;102733.75;;;11.21;77.23
75933;BME280;64803;52.356;5.310;2023-02-15T15:17:00;102730.41;;;10.98;79.35
75933;BME280;64803;52.356;5.310;2023-02-15T15:22:21;102741.53;;;10.84;79.45
75933;BME280;64803;52.356;5.310;2023-02-15T15:24:50;102737.34;;;10.71;81.71